Pagina principale
METAR-TAF:

METAR-TAF

Aeroporti :

Wiener Neustadt, Austria

latitudine: 47-50-36N, longitudine: 016-15-29E, altezza: 272 m

Osservazione

Il bollettino è stato emesso 10 ore e 18 minuti fa, alle 17:00 UTC
Vento 28 kt da ovest con raffiche fino a 40 kt
Temperature
Pressione

METAR: LOAN 231700Z 27028G40KT 30KM SCT035SC BKN100AC /////

Ora: 04:18 (03:18 UTC)

Previsione

Il bollettino è stato emesso 11 ore e 5 minuti fa, alle 16:13 UTC
Previsione valida dal 23 alle 16 UTC al 23 alle 21 UTC
Vento 22 kt da ovest con raffiche fino a 35 kt
Visibilità 10 km o più
Nubi sparse ad un'altezza di 4000 ft
Temporaneamente
dal 23 alle 16 UTC al 23 alle 21 UTC
Vento 30 kt da ovest/nord-ovest con raffiche fino a 48 kt

TAF: LOAN 231613Z 2316/2321 28022G35KT 9999 SCT040 TEMPO 2316/2321 29030G48KT

Osservazioni e previsioni meteorologiche di più di 4000 aeroporti (messaggi METAR e TAF).

Le stazioni disponibili sono rappresentate dai dischi gialli e rossi sulla carta.

Puntare il mouse per vedere il nome della stazione.

Clicca sopra per visualizzare le osservazioni e previsioni meteorologiche.

Per cambiare la mappa : fare clic sui pulsanti verdi con una croce nera per ingrandire, il pulsante verde con un trattino per diminuire, o sulla freccia verde per le mappe adiacenti.


METAR-TAF: